createdAt,value
2019-02-04T00:00:33.259Z,0.50
2019-02-04T00:03:02.351Z,0.50
2019-02-04T00:05:31.283Z,0.50
2019-02-04T00:08:00.281Z,0.50
2019-02-04T00:10:29.209Z,0.60
2019-02-04T00:12:58.708Z,0.50
2019-02-04T00:15:27.632Z,0.50
2019-02-04T00:17:56.726Z,0.40
2019-02-04T00:20:25.754Z,0.40
2019-02-04T00:22:54.843Z,0.40
2019-02-04T00:25:23.780Z,0.30
2019-02-04T00:27:53.083Z,0.30
2019-02-04T00:30:23.499Z,0.30
2019-02-04T00:32:52.480Z,0.20
2019-02-04T00:35:21.416Z,0.20
2019-02-04T00:37:50.402Z,0.20
2019-02-04T00:40:24.334Z,0.10
2019-02-04T00:42:53.332Z,0.20
2019-02-04T00:45:22.368Z,0.10
2019-02-04T00:47:51.753Z,0.10
2019-02-04T00:50:21.786Z,0.10
2019-02-04T00:52:50.886Z,0.10
2019-02-04T00:55:19.810Z,0.10
2019-02-04T00:57:48.844Z,0.10
2019-02-04T01:00:28.797Z,0.00
2019-02-04T01:02:57.732Z,0.00
2019-02-04T01:05:26.713Z,0.00
2019-02-04T01:07:55.637Z,0.00
2019-02-04T01:10:29.844Z,-0.10
2019-02-04T01:12:59.274Z,0.00
2019-02-04T01:15:28.263Z,-0.10
2019-02-04T01:17:57.306Z,-0.10
2019-02-04T01:20:32.020Z,-0.10
2019-02-04T01:23:01.045Z,-0.10
2019-02-04T01:25:30.145Z,-0.20
2019-02-04T01:27:59.093Z,-0.20
2019-02-04T01:30:28.196Z,-0.20
2019-02-04T01:32:57.124Z,-0.20
2019-02-04T01:35:26.613Z,-0.20
2019-02-04T01:37:55.646Z,-0.20
2019-02-04T01:40:26.751Z,-0.20
2019-02-04T01:42:56.188Z,-0.20
2019-02-04T01:45:25.757Z,-0.30
2019-02-04T01:47:54.714Z,-0.30
2019-02-04T01:50:24.107Z,-0.30
2019-02-04T01:52:53.043Z,-0.30
2019-02-04T01:55:22.042Z,-0.30
2019-02-04T01:57:52.777Z,-0.30
2019-02-04T02:00:33.060Z,-0.30
2019-02-04T02:03:02.097Z,-0.30
2019-02-04T02:05:31.189Z,-0.20
2019-02-04T02:08:00.236Z,-0.30
2019-02-04T02:10:29.339Z,-0.30
2019-02-04T02:12:58.370Z,-0.30
2019-02-04T02:15:27.370Z,-0.30
2019-02-04T02:17:56.305Z,-0.30
2019-02-04T02:20:27.104Z,-0.40
2019-02-04T02:22:56.030Z,-0.50
2019-02-04T02:25:25.068Z,-0.50
2019-02-04T02:27:54.057Z,-0.60
2019-02-04T02:30:28.065Z,-0.70
2019-02-04T02:32:57.059Z,-0.80
2019-02-04T02:35:26.094Z,-0.90
2019-02-04T02:37:55.098Z,-0.90
2019-02-04T02:40:26.693Z,-1.00
2019-02-04T02:42:55.686Z,-1.10
2019-02-04T02:45:24.746Z,-1.20
2019-02-04T02:47:53.745Z,-1.30
2019-02-04T02:50:22.681Z,-1.30
2019-02-04T02:52:51.681Z,-1.40
2019-02-04T02:55:20.922Z,-1.40
2019-02-04T02:57:49.921Z,-1.40
2019-02-04T03:00:21.722Z,-1.40
2019-02-04T03:02:51.212Z,-1.40
2019-02-04T03:05:20.153Z,-1.50
2019-02-04T03:07:49.151Z,-1.50
2019-02-04T03:10:25.934Z,-1.50
2019-02-04T03:12:55.036Z,-1.50
2019-02-04T03:15:23.973Z,-1.60
2019-02-04T03:17:53.025Z,-1.70
2019-02-04T03:20:21.999Z,-1.80
2019-02-04T03:22:51.094Z,-1.90
2019-02-04T03:25:20.022Z,-1.90
2019-02-04T03:27:49.129Z,-1.90
2019-02-04T03:30:29.514Z,-2.00
2019-02-04T03:32:58.617Z,-2.00
2019-02-04T03:35:27.756Z,-2.10
2019-02-04T03:37:56.856Z,-2.20
2019-02-04T03:40:30.862Z,-2.20
2019-02-04T03:42:59.835Z,-2.30
2019-02-04T03:45:28.770Z,-2.30
2019-02-04T03:48:05.706Z,-2.40
2019-02-04T03:50:28.333Z,-2.40
2019-02-04T03:52:57.335Z,-2.40
2019-02-04T03:55:26.272Z,-2.30
2019-02-04T03:57:55.373Z,-2.40
2019-02-04T04:00:27.074Z,-2.40
2019-02-04T04:02:56.022Z,-2.40
2019-02-04T04:05:25.309Z,-2.50
2019-02-04T04:07:54.348Z,-2.60
2019-02-04T04:10:23.351Z,-2.60
2019-02-04T04:12:52.384Z,-2.70
2019-02-04T04:15:21.489Z,-2.70
2019-02-04T04:17:50.422Z,-2.70
2019-02-04T04:20:20.538Z,-2.80
2019-02-04T04:22:49.580Z,-2.80
2019-02-04T04:25:19.078Z,-2.80
2019-02-04T04:27:48.209Z,-2.90
2019-02-04T04:30:25.384Z,-3.00
2019-02-04T04:32:54.713Z,-3.00
2019-02-04T04:35:23.818Z,-3.00
2019-02-04T04:37:52.957Z,-3.10
2019-02-04T04:40:22.058Z,-3.20
2019-02-04T04:42:51.097Z,-3.20
2019-02-04T04:45:25.241Z,-3.30
2019-02-04T04:47:54.174Z,-3.30
2019-02-04T04:50:23.172Z,-3.40
2019-02-04T04:52:52.204Z,-3.30
2019-02-04T04:55:25.973Z,-3.40
2019-02-04T04:57:55.007Z,-3.50
2019-02-04T05:00:29.492Z,-3.50
2019-02-04T05:02:58.562Z,-3.50
2019-02-04T05:05:27.627Z,-3.50
2019-02-04T05:07:56.664Z,-3.50
2019-02-04T05:10:25.666Z,-3.60
2019-02-04T05:12:54.608Z,-3.60
2019-02-04T05:15:26.738Z,-3.60
2019-02-04T05:17:55.675Z,-3.70
2019-02-04T05:20:24.780Z,-3.70
2019-02-04T05:22:53.702Z,-3.60
2019-02-04T05:25:22.710Z,-3.60
2019-02-04T05:27:52.045Z,-3.60
2019-02-04T05:30:22.948Z,-3.50
2019-02-04T05:32:51.990Z,-3.40
2019-02-04T05:35:21.090Z,-3.50
2019-02-04T05:37:50.031Z,-3.50
2019-02-04T05:40:19.241Z,-3.50
2019-02-04T05:42:48.605Z,-3.60
2019-02-04T05:45:21.556Z,-3.60
2019-02-04T05:47:51.965Z,-3.60
2019-02-04T05:50:21.319Z,-3.60
2019-02-04T05:52:50.763Z,-3.70
2019-02-04T05:55:21.100Z,-3.80
2019-02-04T05:57:50.241Z,-4.00
2019-02-04T06:00:25.792Z,-4.00
2019-02-04T06:02:54.831Z,-4.10
2019-02-04T06:05:23.891Z,-4.10
2019-02-04T06:07:52.998Z,-4.20
2019-02-04T06:10:22.074Z,-4.30
2019-02-04T06:12:51.155Z,-4.30
2019-02-04T06:15:20.084Z,-4.30
2019-02-04T06:17:49.082Z,-4.30
2019-02-04T06:20:23.239Z,-4.40
2019-02-04T06:22:52.640Z,-4.40
2019-02-04T06:25:21.607Z,-4.30
2019-02-04T06:27:50.677Z,-4.30
2019-02-04T06:30:19.774Z,-4.30
2019-02-04T06:32:48.766Z,-4.30
2019-02-04T06:35:18.106Z,-4.30
2019-02-04T06:37:48.107Z,-4.20
2019-02-04T06:40:17.926Z,-4.30
2019-02-04T06:42:46.943Z,-4.30
2019-02-04T06:45:17.279Z,-4.30
2019-02-04T06:47:46.300Z,-4.40
2019-02-04T06:50:20.070Z,-4.40
2019-02-04T06:52:49.063Z,-4.40
2019-02-04T06:55:24.191Z,-4.50
2019-02-04T06:57:53.221Z,-4.60
2019-02-04T07:00:22.261Z,-4.60
2019-02-04T07:02:51.262Z,-4.50
2019-02-04T07:05:20.500Z,-4.50
2019-02-04T07:07:49.515Z,-4.40
2019-02-04T07:10:23.390Z,-4.20
2019-02-04T07:12:52.400Z,-3.90
2019-02-04T07:15:21.343Z,-3.70
2019-02-04T07:17:50.332Z,-3.60
2019-02-04T07:20:23.872Z,-3.50
2019-02-04T07:22:52.879Z,-3.50
2019-02-04T07:25:22.204Z,-3.30
2019-02-04T07:27:51.539Z,-3.10
2019-02-04T07:30:22.414Z,-3.00
2019-02-04T07:36:06.424Z,-2.40
2019-02-04T07:38:35.425Z,-2.40
2019-02-04T07:41:04.462Z,-2.40
2019-02-04T07:43:33.465Z,-2.10
2019-02-04T07:46:02.410Z,-1.80
2019-02-04T07:48:31.417Z,-1.80
2019-02-04T07:51:00.351Z,-1.80
2019-02-04T07:53:29.295Z,-1.70
2019-02-04T07:55:58.396Z,-1.20
2019-02-04T07:58:27.447Z,-0.40
2019-02-04T08:00:56.436Z,0.10
2019-02-04T08:03:25.360Z,0.40
2019-02-04T08:05:54.363Z,0.50
2019-02-04T08:08:23.389Z,0.60
2019-02-04T08:10:52.404Z,0.50
2019-02-04T08:13:21.646Z,0.50
2019-02-04T08:15:50.737Z,0.40
2019-02-04T08:18:19.724Z,0.50
2019-02-04T08:20:48.747Z,1.10
2019-02-04T08:23:17.754Z,2.00
2019-02-04T08:25:46.781Z,2.90
2019-02-04T08:28:15.774Z,3.30
2019-02-04T08:30:44.698Z,3.40
2019-02-04T08:33:13.705Z,3.40
2019-02-04T08:35:42.624Z,3.30
2019-02-04T08:38:11.623Z,2.90
2019-02-04T08:40:40.657Z,2.60
2019-02-04T08:43:09.647Z,2.40
2019-02-04T08:45:38.579Z,1.90
2019-02-04T08:48:07.578Z,1.60
2019-02-04T08:50:36.514Z,1.60
2019-02-04T08:53:05.514Z,1.70
2019-02-04T08:55:34.941Z,2.20
2019-02-04T08:58:03.939Z,2.80
2019-02-04T09:00:33.074Z,3.00
2019-02-04T09:03:02.064Z,3.10
2019-02-04T09:05:30.991Z,2.90
2019-02-04T09:07:59.997Z,2.60
2019-02-04T09:10:31.527Z,2.50
2019-02-04T09:13:00.716Z,2.60
2019-02-04T09:15:29.644Z,2.80
2019-02-04T09:17:58.642Z,3.10
2019-02-04T09:20:27.575Z,3.40
2019-02-04T09:22:56.500Z,3.70
2019-02-04T09:25:27.005Z,3.90
2019-02-04T09:27:57.442Z,3.90
2019-02-04T09:30:28.392Z,3.70
2019-02-04T09:32:58.924Z,3.70
2019-02-04T09:35:28.121Z,3.90
2019-02-04T09:37:57.156Z,4.20
2019-02-04T09:40:40.645Z,4.40
2019-02-04T09:43:09.786Z,4.50
2019-02-04T09:45:39.079Z,4.40
2019-02-04T09:48:11.116Z,4.50
2019-02-04T09:50:45.274Z,4.60
2019-02-04T09:53:14.312Z,4.70
2019-02-04T09:55:43.310Z,4.70
2019-02-04T09:58:12.243Z,4.60
2019-02-04T10:00:41.352Z,4.40
2019-02-04T10:03:10.386Z,4.30
2019-02-04T10:05:39.375Z,4.50
2019-02-04T10:08:08.613Z,4.60
2019-02-04T10:10:37.625Z,4.60
2019-02-04T10:13:06.857Z,4.70
2019-02-04T10:15:41.675Z,4.80
2019-02-04T10:18:11.199Z,4.70
2019-02-04T10:20:40.535Z,4.70
2019-02-04T10:23:10.059Z,4.70
2019-02-04T10:25:41.365Z,4.70
2019-02-04T10:28:11.180Z,4.70
2019-02-04T10:31:05.597Z,4.70
2019-02-04T10:33:31.941Z,4.70
2019-02-04T10:36:00.951Z,4.80
2019-02-04T10:38:29.898Z,5.00
2019-02-04T10:40:58.975Z,4.80
2019-02-04T10:43:27.913Z,4.60
2019-02-04T10:45:57.027Z,4.50
2019-02-04T10:48:26.070Z,4.50
2019-02-04T10:50:55.142Z,4.60
2019-02-04T10:53:24.177Z,4.60
2019-02-04T10:55:53.281Z,4.60
2019-02-04T10:58:22.197Z,4.60
2019-02-04T11:00:51.306Z,4.60
2019-02-04T11:03:20.282Z,4.60
2019-02-04T11:05:49.541Z,4.70
2019-02-04T11:08:18.457Z,4.80
2019-02-04T11:10:47.461Z,4.80
2019-02-04T11:13:17.018Z,4.80
2019-02-04T11:15:46.170Z,4.80
2019-02-04T11:18:16.032Z,4.60
2019-02-04T11:20:56.851Z,4.70
2019-02-04T11:23:15.683Z,4.60
2019-02-04T11:25:44.824Z,4.70
2019-02-04T11:28:13.962Z,4.70
2019-02-04T11:30:46.031Z,4.60
2019-02-04T11:33:15.090Z,4.40
2019-02-04T11:35:44.016Z,4.50
2019-02-04T11:38:13.149Z,4.50
2019-02-04T11:40:42.403Z,4.40
2019-02-04T11:43:12.956Z,4.30
2019-02-04T11:45:41.986Z,4.30
2019-02-04T11:48:12.785Z,4.40
2019-02-04T11:50:41.686Z,4.30
2019-02-04T11:53:10.703Z,4.30
2019-02-04T11:55:39.626Z,4.20
2019-02-04T11:58:08.922Z,4.10
2019-02-04T12:00:38.246Z,4.10
2019-02-04T12:03:09.443Z,4.10
2019-02-04T12:05:38.378Z,4.10
2019-02-04T12:08:07.768Z,4.30
2019-02-04T12:10:54.769Z,4.30
2019-02-04T12:13:23.803Z,4.30
2019-02-04T12:15:53.338Z,4.40
2019-02-04T12:18:22.344Z,4.40
2019-02-04T12:20:51.278Z,4.30
2019-02-04T12:23:20.570Z,4.40
2019-02-04T12:25:49.498Z,4.40
2019-02-04T12:28:18.493Z,4.40
2019-02-04T12:30:47.531Z,4.30
2019-02-04T12:33:16.830Z,4.20
2019-02-04T12:35:45.758Z,4.20
2019-02-04T12:38:15.148Z,4.10
2019-02-04T12:40:44.067Z,4.10
2019-02-04T12:43:13.164Z,4.20
2019-02-04T12:45:43.386Z,4.30
2019-02-04T12:48:12.370Z,4.20
2019-02-04T12:50:41.396Z,4.20
2019-02-04T12:53:10.802Z,4.00
2019-02-04T12:55:39.725Z,3.90
2019-02-04T12:58:08.728Z,3.80
2019-02-04T13:00:37.764Z,3.80
2019-02-04T13:03:06.769Z,3.80
2019-02-04T13:05:47.140Z,3.90
2019-02-04T13:08:16.134Z,4.00
2019-02-04T13:10:45.058Z,4.20
2019-02-04T13:13:16.070Z,4.30
2019-02-04T13:15:44.986Z,4.40
2019-02-04T13:18:13.926Z,4.40
2019-02-04T13:20:43.213Z,4.40
2019-02-04T13:23:12.141Z,4.30
2019-02-04T13:25:41.134Z,4.40
2019-02-04T13:28:12.586Z,4.30
2019-02-04T13:30:41.767Z,4.40
2019-02-04T13:33:10.700Z,4.50
2019-02-04T13:35:40.012Z,4.50
2019-02-04T13:38:08.926Z,4.50
2019-02-04T13:40:38.022Z,4.30
2019-02-04T13:43:06.959Z,4.20
2019-02-04T13:45:35.944Z,4.20
2019-02-04T13:48:05.080Z,4.20
2019-02-04T13:50:34.176Z,4.10
2019-02-04T13:53:03.112Z,4.00
2019-02-04T13:55:37.159Z,4.00
2019-02-04T13:58:06.393Z,4.10
2019-02-04T14:00:35.598Z,4.10
2019-02-04T14:03:04.805Z,4.10
2019-02-04T14:05:33.913Z,4.10
2019-02-04T14:08:02.833Z,4.10
2019-02-04T14:10:36.729Z,4.10
2019-02-04T14:13:05.953Z,4.10
2019-02-04T14:15:35.626Z,4.10
2019-02-04T14:18:05.576Z,4.10
2019-02-04T14:20:34.676Z,4.10
2019-02-04T14:23:03.609Z,4.10
2019-02-04T14:25:32.737Z,3.70
2019-02-04T14:28:03.650Z,3.50
2019-02-04T14:30:35.055Z,3.60
2019-02-04T14:33:03.991Z,3.60
2019-02-04T14:35:32.978Z,3.60
2019-02-04T14:38:01.894Z,3.60
2019-02-04T14:40:30.895Z,3.60
2019-02-04T14:43:03.079Z,3.70
2019-02-04T14:45:47.188Z,3.60
2019-02-04T14:48:35.517Z,3.70
2019-02-04T14:51:24.012Z,3.60
2019-02-04T14:54:12.449Z,3.60
2019-02-04T14:56:47.268Z,3.50
2019-02-04T14:59:19.310Z,3.30
2019-02-04T15:02:09.504Z,3.20
2019-02-04T15:04:56.448Z,3.00
2019-02-04T15:07:34.311Z,3.00
2019-02-04T15:10:20.998Z,2.90
2019-02-04T15:13:09.416Z,2.80
2019-02-04T15:15:50.182Z,2.80
2019-02-04T15:18:27.886Z,2.70
2019-02-04T15:21:17.785Z,2.70
2019-02-04T15:24:09.085Z,2.70
2019-02-04T15:27:03.843Z,2.60
2019-02-04T15:29:46.741Z,2.50
2019-02-04T15:32:23.740Z,2.40
2019-02-04T15:35:21.320Z,2.30
2019-02-04T15:37:59.385Z,2.20
2019-02-04T15:40:34.394Z,2.10
2019-02-04T15:43:38.070Z,1.90
2019-02-04T15:46:13.070Z,1.80
2019-02-04T15:49:01.406Z,1.70
2019-02-04T15:51:33.451Z,1.60
2019-02-04T15:54:02.450Z,1.50
2019-02-04T15:56:34.408Z,1.30
2019-02-04T15:59:03.410Z,1.10
2019-02-04T16:01:32.326Z,1.00
2019-02-04T16:04:04.451Z,0.80
2019-02-04T16:06:33.680Z,0.60
2019-02-04T16:09:02.780Z,0.50
2019-02-04T16:11:31.703Z,0.40
2019-02-04T16:14:00.699Z,0.30
2019-02-04T16:16:29.771Z,0.20
2019-02-04T16:18:58.765Z,0.20
2019-02-04T16:21:27.998Z,0.10
2019-02-04T16:23:57.098Z,0.00
2019-02-04T16:29:42.968Z,-0.20
2019-02-04T16:32:12.008Z,-0.20
2019-02-04T16:34:41.128Z,-0.30
2019-02-04T16:37:10.065Z,-0.40
2019-02-04T16:39:39.046Z,-0.50
2019-02-04T16:42:08.177Z,-0.60
2019-02-04T16:44:37.167Z,-0.70
2019-02-04T16:47:06.197Z,-0.70
2019-02-04T16:49:35.191Z,-0.80
2019-02-04T16:52:04.222Z,-0.80
2019-02-04T16:54:33.218Z,-0.80
2019-02-04T16:57:02.448Z,-0.90
2019-02-04T16:59:31.446Z,-1.00
2019-02-04T17:02:00.380Z,-1.00
2019-02-04T17:04:29.372Z,-1.10
2019-02-04T17:06:58.306Z,-1.10
2019-02-04T17:09:27.576Z,-1.10
2019-02-04T17:11:57.008Z,-1.10
2019-02-04T17:14:25.931Z,-1.30
2019-02-04T17:16:54.926Z,-1.40
2019-02-04T17:19:23.965Z,-1.40
2019-02-04T17:21:52.959Z,-1.50
2019-02-04T17:24:21.886Z,-1.60
2019-02-04T17:26:50.987Z,-1.60
2019-02-04T17:29:19.923Z,-1.70
2019-02-04T17:31:49.034Z,-1.70
2019-02-04T17:34:18.069Z,-1.70
2019-02-04T17:36:47.060Z,-1.80
2019-02-04T17:39:15.983Z,-1.80
2019-02-04T17:41:45.088Z,-1.70
2019-02-04T17:44:14.016Z,-1.90
2019-02-04T17:46:43.015Z,-1.90
2019-02-04T17:49:12.044Z,-1.90
2019-02-04T17:51:41.038Z,-1.90
2019-02-04T17:54:09.975Z,-2.00
2019-02-04T17:56:38.964Z,-2.00
2019-02-04T17:59:07.901Z,-2.10
2019-02-04T18:01:36.900Z,-2.10
2019-02-04T18:04:06.057Z,-2.10
2019-02-04T18:06:35.181Z,-2.10
2019-02-04T18:09:05.728Z,-2.10
2019-02-04T18:11:34.727Z,-2.10
2019-02-04T18:14:03.668Z,-2.10
2019-02-04T18:16:32.769Z,-2.10
2019-02-04T18:19:01.692Z,-2.20
2019-02-04T18:21:30.686Z,-2.20
2019-02-04T18:24:12.842Z,-2.20
2019-02-04T18:26:41.841Z,-2.20
2019-02-04T18:29:10.870Z,-2.20
2019-02-04T18:31:39.874Z,-2.20
2019-02-04T18:34:08.792Z,-2.20
2019-02-04T18:36:37.795Z,-2.30
2019-02-04T18:39:08.631Z,-2.30
2019-02-04T18:41:37.647Z,-2.30
2019-02-04T18:44:06.672Z,-2.40
2019-02-04T18:46:35.821Z,-2.40
2019-02-04T18:49:04.829Z,-2.40
2019-02-04T18:51:33.876Z,-2.40
2019-02-04T18:54:02.980Z,-2.40
2019-02-04T18:56:32.010Z,-2.40
2019-02-04T18:59:01.017Z,-2.30
2019-02-04T19:01:30.060Z,-2.30
2019-02-04T19:03:59.068Z,-2.30
2019-02-04T19:06:28.400Z,-2.30
2019-02-04T19:08:57.395Z,-2.30
2019-02-04T19:11:26.336Z,-2.40
2019-02-04T19:13:55.436Z,-2.50
2019-02-04T19:16:24.369Z,-2.60
2019-02-04T19:18:53.386Z,-2.70
2019-02-04T19:21:22.419Z,-2.70
2019-02-04T19:23:51.418Z,-2.80
2019-02-04T19:26:20.359Z,-2.80
2019-02-04T19:28:50.950Z,-2.80
2019-02-04T19:31:20.120Z,-2.90
2019-02-04T19:33:49.202Z,-2.80
2019-02-04T19:36:18.586Z,-2.80
2019-02-04T19:38:47.728Z,-2.70
2019-02-04T19:41:16.662Z,-2.70
2019-02-04T19:43:45.760Z,-2.70
2019-02-04T19:46:14.735Z,-2.70
2019-02-04T19:48:43.713Z,-2.60
2019-02-04T19:51:12.642Z,-2.60
2019-02-04T19:53:41.640Z,-2.70
2019-02-04T19:56:10.581Z,-2.80
2019-02-04T19:58:39.585Z,-2.90
2019-02-04T20:01:08.530Z,-2.90
2019-02-04T20:03:37.630Z,-2.90
2019-02-04T20:06:07.020Z,-2.90
2019-02-04T20:08:36.334Z,-3.00
2019-02-04T20:11:05.539Z,-3.00
2019-02-04T20:13:34.790Z,-3.10
2019-02-04T20:16:03.794Z,-3.10
2019-02-04T20:18:32.726Z,-3.00
2019-02-04T20:21:01.736Z,-3.00
2019-02-04T20:23:30.979Z,-3.10
2019-02-04T20:26:00.282Z,-3.10
2019-02-04T20:28:29.219Z,-3.10
2019-02-04T20:30:58.323Z,-3.10
2019-02-04T20:33:27.251Z,-3.10
2019-02-04T20:35:56.260Z,-3.20
2019-02-04T20:38:27.319Z,-3.20
2019-02-04T20:40:56.592Z,-3.20
2019-02-04T20:43:25.631Z,-3.30
2019-02-04T20:45:56.189Z,-3.30
2019-02-04T20:48:25.235Z,-3.30
2019-02-04T20:50:54.331Z,-3.30
2019-02-04T20:53:23.780Z,-3.20
2019-02-04T20:55:52.783Z,-3.30
2019-02-04T20:58:21.724Z,-3.20
2019-02-04T21:00:50.829Z,-3.30
2019-02-04T21:03:19.789Z,-3.20
2019-02-04T21:05:48.786Z,-3.20
2019-02-04T21:08:18.130Z,-3.10
2019-02-04T21:10:47.146Z,-3.00
2019-02-04T21:13:16.087Z,-2.90
2019-02-04T21:15:45.095Z,-2.90
2019-02-04T21:18:14.035Z,-2.80
2019-02-04T21:20:43.047Z,-2.80
2019-02-04T21:23:11.979Z,-2.70
2019-02-04T21:25:41.075Z,-2.70
2019-02-04T21:28:10.012Z,-2.60
2019-02-04T21:30:40.830Z,-2.60
2019-02-04T21:33:09.860Z,-2.60
2019-02-04T21:35:38.858Z,-2.60
2019-02-04T21:38:07.786Z,-2.50
2019-02-04T21:40:36.798Z,-2.50
2019-02-04T21:43:05.740Z,-2.50
2019-02-04T21:45:34.760Z,-2.50
2019-02-04T21:48:03.706Z,-2.50
2019-02-04T21:50:32.743Z,-2.50
2019-02-04T21:53:01.742Z,-2.60
2019-02-04T21:55:30.683Z,-2.60
2019-02-04T21:57:59.694Z,-2.60
2019-02-04T22:00:39.466Z,-2.60
2019-02-04T22:03:08.463Z,-2.60
2019-02-04T22:05:37.509Z,-2.50
2019-02-04T22:08:06.713Z,-2.50
2019-02-04T22:10:35.659Z,-2.40
2019-02-04T22:13:04.662Z,-2.30
2019-02-04T22:15:34.009Z,-2.20
2019-02-04T22:18:03.017Z,-2.20
2019-02-04T22:20:32.051Z,-2.20
2019-02-04T22:23:01.054Z,-2.10
2019-02-04T22:25:29.990Z,-2.10
2019-02-04T22:27:58.982Z,-2.10
2019-02-04T22:30:32.135Z,-2.10
2019-02-04T22:33:01.134Z,-2.10
2019-02-04T22:35:30.075Z,-2.10
2019-02-04T22:37:59.686Z,-2.10
2019-02-04T22:40:30.033Z,-2.20
2019-02-04T22:42:59.530Z,-2.20
2019-02-04T22:45:28.556Z,-2.30
2019-02-04T22:47:57.559Z,-2.20
2019-02-04T22:50:29.163Z,-2.30
2019-02-04T22:53:01.959Z,-2.30
2019-02-04T22:55:32.126Z,-2.40
2019-02-04T22:58:00.006Z,-2.40
2019-02-04T23:00:56.199Z,-2.40
2019-02-04T23:03:27.884Z,-2.40
2019-02-04T23:05:56.951Z,-2.40
2019-02-04T23:08:25.954Z,-2.50
2019-02-04T23:10:54.891Z,-2.50
2019-02-04T23:13:23.903Z,-2.50
2019-02-04T23:15:54.057Z,-2.50
2019-02-04T23:18:23.474Z,-2.50
2019-02-04T23:20:52.413Z,-2.50
2019-02-04T23:23:21.421Z,-2.40
2019-02-04T23:25:50.353Z,-2.40
2019-02-04T23:28:19.368Z,-2.30
2019-02-04T23:30:48.599Z,-2.30
2019-02-04T23:33:17.595Z,-2.30
2019-02-04T23:35:46.649Z,-2.30
2019-02-04T23:38:15.672Z,-2.30
2019-02-04T23:40:44.773Z,-2.30
2019-02-04T23:43:13.810Z,-2.30
2019-02-04T23:45:43.114Z,-2.30
2019-02-04T23:48:12.060Z,-2.20
2019-02-04T23:50:41.063Z,-2.20
2019-02-04T23:53:09.996Z,-2.20
2019-02-04T23:55:39.102Z,-2.20
2019-02-04T23:58:08.041Z,-2.10
